Time;durP1;ratioP1;P1;durP2;ratioP2;P2;SDS_P1;SDS_P2;PMS_P1;PMS_P2;Temp;Humidity;BMP_temperature;BMP_pressure;BME280_temperature;BME280_humidity;BME280_pressure;Samples;Min_cycle;Max_cycle;Signal;HPM_P1;HPM_P2
2021/06/16 00:01:25;;;;;;;7.65;2.40;;;14.00;78.30;;;;;;5867689;40;20039;-81
2021/06/16 00:05:29;;;;;;;7.53;2.83;;;14.40;78.80;;;;;;5865179;40;20044;-82
2021/06/16 00:18:40;;;;;;;5.05;2.10;;;13.30;79.00;;;;;;6107721;23;21105;-83
2021/06/16 00:22:43;;;;;;;6.88;2.60;;;13.20;78.50;;;;;;5835428;40;20043;-83
2021/06/16 00:26:46;;;;;;;7.55;2.35;;;14.20;79.10;;;;;;5829406;40;20036;-82
2021/06/16 00:30:51;;;;;;;10.98;2.58;;;13.20;78.90;;;;;;5829882;40;20839;-82
2021/06/16 00:34:53;;;;;;;8.45;2.17;;;13.10;78.70;;;;;;5828289;40;20072;-83
2021/06/16 00:38:55;;;;;;;6.80;2.00;;;14.10;79.40;;;;;;5820753;40;20036;-83
2021/06/16 00:42:57;;;;;;;8.27;2.97;;;14.40;79.50;;;;;;5831453;40;20048;-84
2021/06/16 00:47:00;;;;;;;7.60;2.40;;;14.20;79.60;;;;;;5834646;40;20028;-83
2021/06/16 00:51:02;;;;;;;7.90;2.60;;;12.90;78.90;;;;;;5825594;40;20040;-82
2021/06/16 00:55:05;;;;;;;;;;;12.80;79.10;;;;;;5826430;40;20196;-83
2021/06/16 00:59:07;;;;;;;6.40;2.30;;;12.70;76.40;;;;;;5822130;40;20619;-82
2021/06/16 01:04:05;;;;;;;8.35;2.60;;;12.70;78.30;;;;;;5824698;40;20040;-83
2021/06/16 01:08:08;;;;;;;6.85;2.50;;;12.60;77.70;;;;;;5821330;40;20662;-83
2021/06/16 01:12:25;;;;;;;7.70;2.63;;;13.20;79.10;;;;;;5823587;40;20036;-84
2021/06/16 01:16:32;;;;;;;7.00;2.42;;;13.40;79.40;;;;;;5825377;40;20628;-83
2021/06/16 01:20:42;;;;;;;8.02;2.97;;;14.40;80.10;;;;;;5818154;40;20642;-83
2021/06/16 01:24:50;;;;;;;6.22;2.45;;;12.60;79.30;;;;;;5827370;40;20029;-84
2021/06/16 01:28:59;;;;;;;10.60;3.00;;;12.40;79.00;;;;;;5836180;40;20035;-83
2021/06/16 01:33:03;;;;;;;7.63;3.38;;;12.40;79.30;;;;;;5828377;40;20059;-85
2021/06/16 01:37:08;;;;;;;7.88;2.97;;;12.60;79.40;;;;;;5882039;23;20039;-87
2021/06/16 01:41:13;;;;;;;8.23;3.03;;;12.30;79.20;;;;;;5870565;23;20043;-84
2021/06/16 01:45:20;;;;;;;6.07;2.80;;;13.70;80.10;;;;;;5844221;40;20028;-84
2021/06/16 01:49:26;;;;;;;7.75;3.25;;;14.30;80.40;;;;;;5844646;40;20032;-85
2021/06/16 01:53:30;;;;;;;6.22;2.70;;;12.20;79.40;;;;;;5843588;40;20724;-86
2021/06/16 01:57:35;;;;;;;6.10;2.67;;;12.20;79.30;;;;;;5843628;40;20091;-85
2021/06/16 02:05:45;;;;;;;6.82;3.03;;;12.10;79.20;;;;;;6737809;23;20398;-87
2021/06/16 02:23:34;;;;;;;7.30;2.70;;;11.90;76.30;;;;;;7751010;23;20028;-85
2021/06/16 02:31:53;;;;;;;7.75;3.50;;;11.90;79.80;;;;;;2332436;23;20046;-84
2021/06/16 02:40:27;;;;;;;6.07;2.92;;;11.70;77.40;;;;;;2583066;23;19938;-85
2021/06/16 02:44:29;;;;;;;;;;;12.90;79.80;;;;;;5862258;23;20043;-86
2021/06/16 02:49:03;;;;;;;7.53;3.53;;;12.90;77.00;;;;;;5881682;23;19947;-85
2021/06/16 03:02:25;;;;;;;10.88;3.60;;;11.50;80.00;;;;;;1728062;23;20199;-86
2021/06/16 03:06:59;;;;;;;5.38;2.70;;;11.50;80.30;;;;;;1721214;23;20187;-85
2021/06/16 03:11:01;;;;;;;10.40;3.95;;;11.40;80.10;;;;;;4704100;23;20036;-86
2021/06/16 03:28:29;;;;;;;10.10;3.50;;;11.30;80.40;;;;;;1962044;23;20356;-86
2021/06/16 03:37:18;;;;;;;6.35;3.40;;;11.30;81.10;;;;;;1719504;23;20258;-83
2021/06/16 03:41:23;;;;;;;8.52;3.58;;;11.30;81.60;;;;;;1757305;23;21607;31
2021/06/16 05:05:52;;;;;;;9.02;1.98;;;15.50;79.60;;;;;;2623998;23;20040;-87
2021/06/16 05:10:25;;;;;;;8.85;2.83;;;15.80;79.00;;;;;;5898813;23;20043;-87
2021/06/16 05:14:59;;;;;;;11.10;2.25;;;16.10;79.00;;;;;;1738296;23;20222;-83
2021/06/16 05:19:04;;;;;;;9.38;2.00;;;16.30;78.40;;;;;;5889208;23;20039;-87
2021/06/16 05:36:38;;;;;;;11.70;2.00;;;16.80;78.80;;;;;;5361773;23;20050;-85
2021/06/16 05:45:34;;;;;;;6.07;1.70;;;17.10;78.50;;;;;;1766280;23;20188;-87
2021/06/16 05:50:09;;;;;;;9.35;2.22;;;17.20;78.30;;;;;;1725824;23;20243;-87
2021/06/16 05:59:24;;;;;;;7.57;2.22;;;17.20;79.20;;;;;;1727149;23;20239;-86
2021/06/16 06:07:42;;;;;;;8.82;2.13;;;17.30;79.20;;;;;;3661772;23;20039;-85
2021/06/16 06:11:44;;;;;;;;;;;17.30;79.50;;;;;;5956624;23;20032;-85
2021/06/16 06:24:50;;;;;;;9.52;1.83;;;17.60;78.70;;;;;;5888124;23;20040;-85
2021/06/16 06:28:53;;;;;;;6.28;1.38;;;18.70;79.10;;;;;;5908074;23;20051;-84
2021/06/16 06:32:54;;;;;;;;;;;20.40;79.70;;;;;;5873675;40;20055;-83
2021/06/16 06:36:56;;;;;;;8.85;1.38;;;18.10;78.20;;;;;;5865649;40;19931;-82
2021/06/16 06:40:58;;;;;;;8.73;1.50;;;18.10;76.90;;;;;;5917906;23;20055;-84
2021/06/16 06:45:00;;;;;;;;;;;18.50;76.80;;;;;;5850467;40;20043;-85
2021/06/16 06:49:02;;;;;;;6.13;1.48;;;18.30;77.10;;;;;;5837447;40;20571;-83
2021/06/16 06:53:04;;;;;;;7.85;1.70;;;18.30;77.10;;;;;;5838128;40;20043;-83
2021/06/16 06:57:06;;;;;;;;;;;19.20;77.20;;;;;;5841991;40;20080;-80
2021/06/16 07:01:09;;;;;;;6.93;1.30;;;18.70;76.90;;;;;;5834218;40;19982;-83
2021/06/16 07:05:11;;;;;;;6.90;1.70;;;19.70;76.20;;;;;;5835929;40;20610;-82
2021/06/16 07:09:13;;;;;;;5.70;1.30;;;18.90;75.60;;;;;;5842062;40;20090;-82
2021/06/16 07:13:15;;;;;;;6.28;1.27;;;19.10;74.80;;;;;;5852230;40;20055;-83
2021/06/16 07:17:37;;;;;;;8.00;1.67;;;21.20;75.10;;;;;;5836194;40;20066;-83
2021/06/16 07:21:39;;;;;;;5.72;1.35;;;20.30;74.60;;;;;;5851401;40;20870;-83
2021/06/16 07:25:41;;;;;;;;;;;19.40;74.00;;;;;;5836749;40;20066;-82
2021/06/16 07:29:43;;;;;;;4.97;1.25;;;19.50;73.70;;;;;;5835004;40;20693;-82
2021/06/16 07:33:45;;;;;;;5.40;1.20;;;19.50;73.70;;;;;;5833156;40;20046;-81
2021/06/16 07:37:47;;;;;;;3.40;1.08;;;19.70;72.90;;;;;;5846835;40;20464;-82
2021/06/16 07:41:52;;;;;;;9.57;1.60;;;19.90;73.00;;;;;;5836031;40;20056;-82
2021/06/16 07:45:53;;;;;;;4.63;1.20;;;19.90;72.80;;;;;;5833639;40;20772;-82
2021/06/16 07:49:56;;;;;;;3.53;1.30;;;20.10;72.80;;;;;;5832581;40;20039;-81
2021/06/16 07:53:58;;;;;;;6.15;1.27;;;19.90;71.70;;;;;;5833860;40;20056;-82
2021/06/16 07:58:02;;;;;;;;;;;20.50;72.50;;;;;;5847362;40;20752;-81
2021/06/16 08:02:05;;;;;;;7.00;1.35;;;19.70;75.30;;;;;;5835234;40;19930;-81
2021/06/16 08:06:07;;;;;;;8.48;1.73;;;19.80;73.20;;;;;;5832488;40;20439;-82
2021/06/16 08:10:10;;;;;;;;;;;19.90;73.00;;;;;;5841302;40;20103;-82
2021/06/16 08:14:13;;;;;;;6.28;1.40;;;20.10;75.60;;;;;;5830251;40;20227;-79
2021/06/16 08:18:14;;;;;;;;;;;20.40;72.10;;;;;;5838523;40;20043;-83
2021/06/16 08:22:18;;;;;;;5.53;1.13;;;20.70;74.80;;;;;;5830659;40;19931;-79
2021/06/16 08:26:20;;;;;;;5.38;1.00;;;20.80;71.50;;;;;;5845430;40;20084;-82
2021/06/16 08:30:22;;;;;;;7.95;1.15;;;21.00;70.70;;;;;;5846407;40;20048;-82
2021/06/16 08:34:24;;;;;;;5.25;1.33;;;21.40;70.60;;;;;;5831273;40;20067;-81
2021/06/16 08:38:26;;;;;;;4.80;1.25;;;21.30;70.80;;;;;;5832892;40;20095;-81
2021/06/16 08:42:28;;;;;;;7.50;1.10;;;21.50;70.00;;;;;;5829613;40;20051;-82
2021/06/16 08:46:31;;;;;;;5.25;1.67;;;21.60;69.80;;;;;;5824756;40;20075;-83
2021/06/16 08:50:34;;;;;;;7.78;1.05;;;21.60;69.40;;;;;;5825956;40;20055;-84
2021/06/16 08:54:37;;;;;;;3.80;1.10;;;22.20;67.30;;;;;;5849251;40;20036;-83
2021/06/16 08:58:40;;;;;;;5.82;1.30;;;22.50;68.30;;;;;;5844496;40;20039;-80
2021/06/16 09:02:42;;;;;;;3.72;1.10;;;21.70;67.50;;;;;;5827911;40;20064;-81
2021/06/16 09:06:44;;;;;;;5.18;1.20;;;22.10;68.10;;;;;;5831717;40;20965;-83
2021/06/16 09:10:49;;;;;;;4.82;0.93;;;22.20;68.90;;;;;;5837938;40;20044;-82
2021/06/16 09:14:56;;;;;;;5.78;1.20;;;22.20;66.60;;;;;;5836946;40;20073;-83
2021/06/16 09:18:58;;;;;;;6.25;1.10;;;22.40;66.70;;;;;;5838435;40;20052;-82
2021/06/16 09:23:27;;;;;;;4.03;1.10;;;22.60;65.40;;;;;;5846769;40;20055;-83
2021/06/16 09:27:44;;;;;;;5.50;1.73;;;22.80;65.60;;;;;;5828591;40;20048;-82
2021/06/16 09:31:46;;;;;;;6.25;1.02;;;22.70;66.40;;;;;;5817675;40;20076;-83
2021/06/16 09:35:49;;;;;;;7.50;1.75;;;22.60;65.80;;;;;;5841671;40;20047;-82
2021/06/16 09:40:00;;;;;;;4.53;1.20;;;22.80;64.70;;;;;;5832975;40;21069;-83
2021/06/16 09:44:01;;;;;;;3.38;1.17;;;23.10;67.10;;;;;;5833129;40;20060;-82
2021/06/16 09:48:31;;;;;;;5.00;1.25;;;23.40;64.10;;;;;;5844791;40;20044;-82
2021/06/16 09:52:47;;;;;;;6.45;1.08;;;23.40;66.30;;;;;;5834719;40;20561;-81
2021/06/16 09:56:55;;;;;;;4.72;1.27;;;23.50;65.00;;;;;;5840957;40;20052;-82
2021/06/16 10:00:59;;;;;;;5.75;1.40;;;23.40;64.60;;;;;;5843535;40;20059;-83
2021/06/16 10:05:03;;;;;;;6.18;1.13;;;23.60;64.20;;;;;;5844495;40;20044;-81
2021/06/16 10:09:09;;;;;;;8.32;1.67;;;23.70;62.60;;;;;;5842678;40;20103;-83
2021/06/16 10:13:10;;;;;;;6.68;1.60;;;23.90;64.70;;;;;;5841847;40;20076;-83
2021/06/16 10:17:15;;;;;;;6.63;1.70;;;23.60;65.00;;;;;;5823151;40;20736;-82
2021/06/16 10:21:17;;;;;;;5.13;1.60;;;23.80;61.90;;;;;;5825345;40;20083;-82
2021/06/16 10:25:19;;;;;;;6.95;1.70;;;23.60;63.90;;;;;;5830802;40;20056;-83
2021/06/16 10:29:22;;;;;;;5.53;1.35;;;23.80;65.20;;;;;;5826626;40;20059;-79
2021/06/16 10:33:42;;;;;;;4.88;1.10;;;24.50;62.40;;;;;;5836140;40;20147;-80
2021/06/16 10:37:45;;;;;;;5.55;1.23;;;25.10;62.00;;;;;;5824806;40;20043;-80
2021/06/16 10:41:47;;;;;;;6.00;1.75;;;24.50;61.80;;;;;;5823134;40;20128;-82
2021/06/16 10:45:55;;;;;;;8.40;1.70;;;24.30;62.20;;;;;;5841475;40;20108;-83
2021/06/16 10:49:57;;;;;;;3.97;1.35;;;24.30;62.90;;;;;;5816955;40;20056;-82
2021/06/16 10:54:11;;;;;;;6.78;1.63;;;24.60;61.70;;;;;;5820895;40;20079;-80
2021/06/16 10:58:16;;;;;;;4.68;1.38;;;25.00;62.40;;;;;;5841394;40;20096;-82
2021/06/16 11:02:34;;;;;;;4.70;1.50;;;24.60;60.10;;;;;;5826306;40;20063;-81
2021/06/16 11:06:39;;;;;;;5.25;1.17;;;25.30;62.10;;;;;;5841040;40;20062;-81
2021/06/16 11:10:53;;;;;;;5.45;1.15;;;25.10;59.40;;;;;;5843347;40;20043;-81
2021/06/16 11:14:56;;;;;;;4.50;1.20;;;25.10;61.60;;;;;;5835168;40;20084;-80
2021/06/16 11:19:20;;;;;;;3.15;0.95;;;25.10;60.30;;;;;;5811395;40;20127;-81
2021/06/16 11:23:24;;;;;;;4.80;0.68;;;25.40;62.10;;;;;;5824890;40;20056;-79
2021/06/16 11:27:55;;;;;;;4.57;0.90;;;25.60;57.20;;;;;;5820150;40;20044;-81
2021/06/16 11:32:11;;;;;;;6.40;0.90;;;25.90;58.30;;;;;;5818598;40;20048;-80
2021/06/16 11:36:17;;;;;;;2.42;0.77;;;26.10;58.30;;;;;;5827342;40;20384;-81
2021/06/16 11:40:19;;;;;;;3.25;0.90;;;26.30;56.70;;;;;;5817630;40;20060;-81
2021/06/16 11:44:23;;;;;;;6.10;1.17;;;26.40;57.00;;;;;;5820869;40;20401;-80
2021/06/16 11:48:25;;;;;;;7.38;0.93;;;26.30;56.40;;;;;;5818019;40;20056;-80
2021/06/16 11:52:27;;;;;;;6.03;0.98;;;26.40;55.70;;;;;;5827199;40;20063;-80
2021/06/16 11:56:38;;;;;;;4.80;0.80;;;26.50;54.40;;;;;;5834230;40;20052;-80
2021/06/16 12:00:39;;;;;;;4.00;0.90;;;26.40;55.50;;;;;;5818613;40;20043;-80
2021/06/16 12:04:51;;;;;;;4.07;0.88;;;26.50;56.10;;;;;;5816744;40;20052;-80
2021/06/16 12:08:58;;;;;;;;;;;26.70;55.00;;;;;;5816491;40;20091;-80
2021/06/16 12:13:03;;;;;;;5.03;0.93;;;26.60;55.50;;;;;;5816621;40;19946;-80
2021/06/16 12:17:05;;;;;;;6.07;1.25;;;26.50;55.50;;;;;;5812972;40;20054;-80
2021/06/16 12:21:07;;;;;;;4.30;0.90;;;26.20;54.90;;;;;;5817093;40;20071;-80
2021/06/16 12:25:09;;;;;;;6.40;1.10;;;26.30;55.00;;;;;;5833490;40;20056;-78
2021/06/16 12:29:15;;;;;;;7.65;1.20;;;26.50;56.50;;;;;;5816952;40;20062;-80
2021/06/16 12:37:19;;;;;;;5.38;1.20;;;26.60;56.20;;;;;;5813946;40;20294;-80
2021/06/16 12:41:27;;;;;;;5.10;1.02;;;26.50;58.10;;;;;;5830423;40;20047;-79
2021/06/16 12:45:42;;;;;;;3.92;1.10;;;25.90;58.20;;;;;;5813610;40;20061;-78
2021/06/16 12:49:44;;;;;;;5.60;1.50;;;25.40;59.50;;;;;;5812976;40;20408;-78
2021/06/16 12:53:46;;;;;;;7.80;1.45;;;25.20;60.60;;;;;;5805412;40;20067;-78
2021/06/16 12:57:53;;;;;;;6.20;1.33;;;24.80;61.70;;;;;;5808993;40;20052;-78
2021/06/16 13:01:57;;;;;;;7.43;1.63;;;24.60;61.30;;;;;;5826839;40;20119;-80
2021/06/16 13:06:01;;;;;;;9.63;1.30;;;24.40;62.40;;;;;;5811271;40;20506;-79
2021/06/16 13:10:06;;;;;;;8.43;1.35;;;24.20;63.10;;;;;;5829199;40;20158;-81
2021/06/16 13:14:16;;;;;;;6.68;1.48;;;24.00;64.20;;;;;;5811875;40;20087;-80
2021/06/16 13:18:19;;;;;;;6.55;1.30;;;23.70;64.30;;;;;;5820768;40;20059;-79
2021/06/16 13:22:34;;;;;;;8.75;1.40;;;23.50;65.40;;;;;;5814935;40;20240;-79
2021/06/16 13:26:36;;;;;;;3.25;1.10;;;23.60;64.20;;;;;;5813715;40;20641;-80
2021/06/16 13:30:41;;;;;;;7.32;1.65;;;23.60;66.00;;;;;;5820407;40;20095;-78
2021/06/16 13:34:44;;;;;;;5.63;1.27;;;23.50;65.90;;;;;;5824644;40;20059;-79
2021/06/16 13:38:50;;;;;;;5.82;1.50;;;23.70;67.10;;;;;;5813214;40;20413;-80
2021/06/16 13:42:58;;;;;;;5.25;1.30;;;23.40;67.10;;;;;;5819973;40;20578;-80
2021/06/16 13:47:00;;;;;;;6.55;1.25;;;23.30;66.90;;;;;;5810931;40;20059;-77
2021/06/16 13:51:02;;;;;;;6.60;1.50;;;23.00;67.80;;;;;;5809480;40;20151;-79
2021/06/16 13:55:06;;;;;;;6.32;1.30;;;23.00;68.00;;;;;;5811630;40;20069;-77
2021/06/16 13:59:08;;;;;;;5.13;1.27;;;22.90;68.70;;;;;;5811652;40;20135;-78
2021/06/16 14:03:10;;;;;;;5.60;1.20;;;22.90;69.50;;;;;;5825708;40;20119;-78
2021/06/16 14:07:13;;;;;;;7.35;1.55;;;23.00;68.80;;;;;;5811448;40;20055;-80
2021/06/16 14:11:15;;;;;;;6.25;1.30;;;22.80;68.60;;;;;;5811849;40;20417;-77
2021/06/16 14:15:17;;;;;;;6.55;1.20;;;22.60;69.10;;;;;;5811825;40;20068;-80
2021/06/16 14:19:22;;;;;;;5.32;1.10;;;22.60;69.40;;;;;;5815816;40;20081;-78
2021/06/16 14:23:26;;;;;;;6.95;1.80;;;22.50;69.60;;;;;;5814271;40;20063;-77
2021/06/16 14:27:28;;;;;;;4.72;1.35;;;22.50;69.40;;;;;;5813224;40;20051;-79
2021/06/16 14:31:30;;;;;;;2.97;1.00;;;22.50;70.00;;;;;;5810899;40;20048;-79
2021/06/16 14:35:33;;;;;;;5.50;1.58;;;22.50;70.60;;;;;;5827036;40;20052;-79
2021/06/16 14:39:35;;;;;;;4.68;1.30;;;22.50;70.50;;;;;;5812030;40;20040;-76
2021/06/16 14:43:37;;;;;;;;;;;22.50;70.60;;;;;;5828335;40;20059;-79
2021/06/16 14:47:39;;;;;;;4.70;1.40;;;22.40;73.00;;;;;;5810620;40;20018;-79
2021/06/16 14:51:40;;;;;;;4.93;1.50;;;22.50;71.60;;;;;;5811809;40;20439;-77
2021/06/16 14:55:43;;;;;;;6.22;2.10;;;22.30;71.60;;;;;;5806132;40;20100;-78
2021/06/16 14:59:45;;;;;;;3.90;1.30;;;22.40;72.30;;;;;;5823281;40;20051;-78
2021/06/16 15:03:49;;;;;;;3.47;1.20;;;22.50;73.10;;;;;;5810988;40;20052;-78
2021/06/16 15:07:51;;;;;;;6.53;1.40;;;22.00;73.80;;;;;;5824951;40;20070;-77
2021/06/16 15:11:53;;;;;;;4.80;1.33;;;21.90;74.60;;;;;;5810592;40;20318;-77
2021/06/16 15:15:55;;;;;;;;;;;21.90;74.80;;;;;;5825850;40;20054;-77
2021/06/16 15:19:57;;;;;;;6.40;1.45;;;21.90;78.10;;;;;;5818275;40;19973;-78
2021/06/16 15:23:58;;;;;;;5.13;1.20;;;21.90;75.10;;;;;;5812532;40;20326;-79
2021/06/16 15:28:02;;;;;;;6.05;1.60;;;22.00;75.00;;;;;;5828100;40;21459;-78
2021/06/16 15:32:05;;;;;;;7.00;1.85;;;22.10;75.20;;;;;;5810759;40;20070;-78
2021/06/16 15:36:07;;;;;;;4.65;1.52;;;22.20;74.90;;;;;;5806276;40;20274;-78
2021/06/16 15:40:11;;;;;;;4.75;1.25;;;22.30;74.30;;;;;;5812839;40;20122;-78
2021/06/16 15:44:14;;;;;;;7.53;1.55;;;22.40;73.60;;;;;;5812806;40;20058;-77
2021/06/16 15:48:17;;;;;;;7.00;2.00;;;22.50;70.70;;;;;;5831127;40;20048;-78
2021/06/16 15:52:19;;;;;;;6.28;1.58;;;22.60;68.90;;;;;;5820216;40;20056;-78
2021/06/16 15:56:21;;;;;;;4.68;1.40;;;22.80;68.60;;;;;;5806933;40;20357;-77
2021/06/16 16:00:24;;;;;;;7.47;1.63;;;22.80;69.00;;;;;;5810354;40;20068;-77
2021/06/16 16:04:26;;;;;;;4.60;1.38;;;22.90;67.20;;;;;;5829010;40;20043;-78
2021/06/16 16:08:28;;;;;;;5.75;1.55;;;23.10;68.30;;;;;;5815654;40;20144;-78
2021/06/16 16:12:30;;;;;;;4.30;1.00;;;23.70;68.70;;;;;;5814893;40;20067;-78
2021/06/16 16:16:32;;;;;;;5.25;1.23;;;23.00;68.70;;;;;;5813757;40;20340;-77
2021/06/16 16:20:35;;;;;;;4.55;1.40;;;22.80;68.80;;;;;;5830344;40;20050;-77
2021/06/16 16:24:37;;;;;;;5.40;1.20;;;22.70;69.10;;;;;;5817040;40;20499;-79
2021/06/16 16:28:39;;;;;;;;;;;22.60;69.10;;;;;;5830372;40;20059;-78
2021/06/16 16:32:42;;;;;;;5.47;1.60;;;22.50;68.90;;;;;;5812814;40;19935;-77
2021/06/16 16:36:44;;;;;;;6.45;1.48;;;22.50;69.30;;;;;;5816380;40;20152;-77
2021/06/16 16:40:46;;;;;;;9.27;1.58;;;23.20;69.70;;;;;;5814814;40;20052;-79
2021/06/16 16:44:48;;;;;;;5.18;1.65;;;22.40;69.50;;;;;;5829397;40;20122;-78
2021/06/16 16:48:50;;;;;;;6.53;1.45;;;22.30;69.50;;;;;;5816984;40;20333;-79
2021/06/16 16:52:55;;;;;;;3.95;1.02;;;22.40;69.30;;;;;;5824183;40;20067;-80
2021/06/16 16:56:58;;;;;;;9.73;1.30;;;22.50;69.70;;;;;;5831184;40;20100;-77
2021/06/16 17:00:59;;;;;;;5.75;1.17;;;22.30;69.80;;;;;;5815002;40;20115;-79
2021/06/16 17:05:02;;;;;;;5.18;1.45;;;24.00;70.80;;;;;;5816538;40;20603;-78
2021/06/16 17:09:05;;;;;;;8.25;1.75;;;22.30;71.80;;;;;;5818750;40;20064;-79
2021/06/16 17:13:06;;;;;;;7.10;1.60;;;22.00;73.20;;;;;;5833943;40;20158;-79
2021/06/16 17:17:08;;;;;;;7.72;1.73;;;21.90;73.90;;;;;;5830768;40;20618;-78
2021/06/16 17:21:12;;;;;;;4.88;1.67;;;21.70;74.30;;;;;;5831083;40;20170;-78
2021/06/16 17:25:16;;;;;;;8.02;1.50;;;21.40;74.30;;;;;;5818757;40;20396;-80
2021/06/16 17:29:18;;;;;;;7.50;1.35;;;21.50;75.50;;;;;;5813131;40;20060;-78
2021/06/16 17:33:20;;;;;;;8.07;2.00;;;21.30;75.90;;;;;;5818305;40;20047;-80
2021/06/16 17:37:22;;;;;;;7.82;1.73;;;21.80;76.40;;;;;;5833573;40;20400;-78
2021/06/16 17:41:24;;;;;;;6.88;1.92;;;21.20;76.50;;;;;;5819274;40;20111;-79
2021/06/16 17:45:28;;;;;;;;;;;21.10;76.70;;;;;;5819462;40;20617;-80
2021/06/16 17:49:30;;;;;;;4.80;1.45;;;20.90;77.50;;;;;;5817189;40;19957;-78
2021/06/16 17:53:32;;;;;;;6.93;1.48;;;20.80;77.10;;;;;;5835572;40;20472;-79
2021/06/16 17:57:34;;;;;;;7.95;1.75;;;20.70;77.70;;;;;;5831216;40;20045;-78
2021/06/16 18:01:36;;;;;;;4.40;1.70;;;21.80;76.90;;;;;;5836410;40;20045;-80
2021/06/16 18:05:38;;;;;;;4.78;1.83;;;20.90;74.50;;;;;;5822742;40;20036;-79
2021/06/16 18:09:40;;;;;;;6.28;1.80;;;20.40;73.70;;;;;;5837241;40;20063;-78
2021/06/16 18:13:42;;;;;;;;;;;21.20;74.30;;;;;;5823099;40;20086;-78
2021/06/16 18:17:45;;;;;;;5.22;1.50;;;21.00;73.70;;;;;;5835006;40;19953;-77
2021/06/16 18:21:47;;;;;;;5.05;1.50;;;20.80;73.20;;;;;;5822298;40;20063;-78
2021/06/16 18:25:49;;;;;;;5.22;1.20;;;20.80;73.00;;;;;;5825578;40;20067;-77
2021/06/16 18:29:51;;;;;;;;;;;20.70;73.20;;;;;;5820596;40;20131;-78
2021/06/16 18:33:53;;;;;;;4.53;1.20;;;20.50;73.60;;;;;;5817887;40;20026;-77
2021/06/16 18:37:55;;;;;;;;;;;20.60;73.80;;;;;;5819824;40;20060;-79
2021/06/16 18:42:01;;;;;;;4.55;1.50;;;20.50;75.50;;;;;;5825198;40;19935;-79
2021/06/16 18:46:06;;;;;;;6.22;1.23;;;20.50;74.10;;;;;;5820327;40;20126;-78
2021/06/16 18:50:13;;;;;;;6.15;1.70;;;20.50;74.20;;;;;;5833341;40;20048;-78
2021/06/16 18:54:24;;;;;;;8.27;1.88;;;20.40;74.10;;;;;;5820421;40;20055;-78
2021/06/16 18:58:26;;;;;;;6.88;1.30;;;21.10;74.50;;;;;;5833131;40;20077;-79
2021/06/16 19:02:36;;;;;;;;;;;20.30;74.30;;;;;;5816076;40;20166;-79
2021/06/16 19:06:39;;;;;;;5.72;1.48;;;21.20;77.30;;;;;;5812967;40;19946;-78
2021/06/16 19:10:42;;;;;;;4.97;1.17;;;20.90;75.00;;;;;;5820474;40;20056;-79
2021/06/16 19:14:44;;;;;;;3.60;1.33;;;20.20;74.80;;;;;;5825103;40;20062;-78
2021/06/16 19:18:46;;;;;;;8.10;1.40;;;20.10;74.70;;;;;;5820753;40;20050;-79
2021/06/16 19:22:48;;;;;;;;;;;20.10;74.80;;;;;;5820311;40;20059;-79
2021/06/16 19:26:52;;;;;;;5.70;1.30;;;20.00;74.70;;;;;;5820475;40;20027;-78
2021/06/16 19:30:54;;;;;;;5.15;1.38;;;21.00;75.60;;;;;;5824400;40;20067;-79
2021/06/16 19:34:56;;;;;;;;;;;20.60;75.60;;;;;;5825876;40;20051;-78
2021/06/16 19:38:58;;;;;;;5.43;1.38;;;19.70;75.20;;;;;;5824750;40;19947;-77
2021/06/16 19:43:00;;;;;;;7.93;1.85;;;19.60;75.70;;;;;;5821340;40;20047;-79
2021/06/16 19:47:03;;;;;;;5.80;1.35;;;19.50;76.00;;;;;;5818830;40;20621;-78
2021/06/16 19:51:05;;;;;;;8.27;1.52;;;19.40;76.50;;;;;;5817525;40;20079;-81
2021/06/16 19:55:07;;;;;;;7.68;1.50;;;19.40;76.50;;;;;;5833307;40;20656;-80
2021/06/16 19:59:10;;;;;;;9.75;1.88;;;19.30;76.90;;;;;;5820411;40;20058;-80
2021/06/16 20:03:12;;;;;;;4.15;1.38;;;19.30;77.20;;;;;;5827302;40;20044;-79
2021/06/16 20:07:14;;;;;;;5.75;1.77;;;19.50;78.00;;;;;;5819321;40;20087;-81
2021/06/16 20:11:16;;;;;;;4.43;1.30;;;19.10;78.40;;;;;;5817897;40;20052;-80
2021/06/16 20:15:20;;;;;;;6.07;1.40;;;20.40;78.90;;;;;;5825615;40;20040;-79
2021/06/16 20:19:26;;;;;;;5.43;1.50;;;19.00;78.40;;;;;;5822513;40;20646;-82
2021/06/16 20:23:28;;;;;;;8.10;1.30;;;19.00;79.30;;;;;;5822906;40;20064;-81
2021/06/16 20:27:30;;;;;;;4.43;1.30;;;19.80;79.20;;;;;;5819841;40;20036;-79
2021/06/16 20:31:33;;;;;;;;;;;19.80;79.40;;;;;;5833534;40;20375;-80
2021/06/16 20:35:35;;;;;;;4.70;1.45;;;18.70;81.30;;;;;;5817254;40;19937;-79
2021/06/16 20:39:37;;;;;;;;;;;18.70;79.40;;;;;;5821537;40;20426;-80
2021/06/16 20:43:39;;;;;;;9.13;1.50;;;19.60;83.80;;;;;;5816815;40;19943;-81
2021/06/16 20:47:41;;;;;;;5.82;1.90;;;18.70;80.10;;;;;;5817700;40;20036;-81
2021/06/16 20:51:44;;;;;;;5.40;1.58;;;18.60;80.30;;;;;;5834360;40;20036;-80
2021/06/16 20:55:46;;;;;;;5.65;1.50;;;18.60;80.50;;;;;;5837516;40;20040;-82
2021/06/16 20:59:47;;;;;;;;;;;18.50;80.70;;;;;;5823346;40;20111;-81
2021/06/16 21:03:49;;;;;;;5.72;1.40;;;18.50;85.60;;;;;;5834546;40;19947;-81
2021/06/16 21:07:53;;;;;;;6.60;1.92;;;18.40;81.60;;;;;;5812193;40;20610;-81
2021/06/16 21:11:55;;;;;;;8.63;1.40;;;18.40;82.10;;;;;;5817406;40;20116;-79
2021/06/16 21:15:57;;;;;;;8.55;1.60;;;18.40;82.20;;;;;;5818949;40;20051;-79
2021/06/16 21:19:59;;;;;;;5.57;1.10;;;19.30;82.80;;;;;;5826156;40;20633;-78
2021/06/16 21:24:02;;;;;;;5.13;1.73;;;18.30;82.80;;;;;;5835940;40;20071;-81
2021/06/16 21:28:04;;;;;;;5.82;1.35;;;18.20;84.00;;;;;;5820512;40;20067;-80
2021/06/16 21:32:07;;;;;;;8.00;1.70;;;18.20;84.20;;;;;;5824516;40;20068;-80
2021/06/16 21:36:09;;;;;;;7.85;1.70;;;18.20;84.50;;;;;;5822237;40;20123;-82
2021/06/16 21:40:11;;;;;;;7.57;1.50;;;18.20;84.50;;;;;;5818790;40;20409;-82
2021/06/16 21:44:14;;;;;;;7.47;1.25;;;18.10;84.40;;;;;;5821528;40;20048;-80
2021/06/16 21:48:16;;;;;;;4.85;1.35;;;18.20;84.40;;;;;;5820533;40;20139;-81
2021/06/16 21:52:17;;;;;;;;;;;18.20;84.80;;;;;;5832690;40;20093;-77
2021/06/16 21:56:20;;;;;;;8.50;1.75;;;18.10;90.80;;;;;;5834323;40;20199;-81
2021/06/16 22:00:33;;;;;;;8.55;2.03;;;18.60;86.00;;;;;;5824361;40;20608;-80
2021/06/16 22:04:36;;;;;;;5.57;1.67;;;18.00;86.60;;;;;;5819712;40;20055;-80
2021/06/16 22:08:40;;;;;;;12.02;2.22;;;18.10;86.70;;;;;;5822772;40;20063;-79
2021/06/16 22:12:45;;;;;;;7.00;1.95;;;18.00;86.70;;;;;;5820980;40;20048;-80
2021/06/16 22:16:47;;;;;;;;;;;18.70;87.80;;;;;;5822784;40;20490;-80
2021/06/16 22:20:50;;;;;;;;;;;18.00;92.20;;;;;;5839999;40;20565;-80
2021/06/16 22:24:53;;;;;;;7.10;1.88;;;17.90;92.30;;;;;;5822170;40;20382;-80
2021/06/16 22:28:55;;;;;;;4.57;1.75;;;19.00;89.70;;;;;;5823244;40;20063;-81
2021/06/16 22:32:58;;;;;;;8.07;1.73;;;17.90;89.80;;;;;;5838658;40;20091;-79
2021/06/16 22:37:00;;;;;;;4.63;1.73;;;18.50;90.20;;;;;;5822769;40;20048;-79
2021/06/16 22:41:02;;;;;;;;;;;17.90;90.30;;;;;;5839469;40;20040;-78
2021/06/16 22:45:09;;;;;;;5.22;2.08;;;17.80;93.70;;;;;;5822811;40;19938;-80
2021/06/16 22:49:11;;;;;;;8.60;2.17;;;17.70;90.90;;;;;;5822979;40;20067;-79
2021/06/16 22:53:13;;;;;;;;;;;17.70;90.70;;;;;;5842941;40;20601;-80
2021/06/16 22:57:15;;;;;;;3.93;1.80;;;17.70;94.00;;;;;;5821055;40;19978;-80
2021/06/16 23:01:17;;;;;;;7.75;2.17;;;18.30;91.20;;;;;;5822168;40;20082;-79
2021/06/16 23:05:19;;;;;;;;;;;17.90;91.30;;;;;;5825547;40;20036;-83
2021/06/16 23:09:20;;;;;;;9.13;2.85;;;18.30;95.30;;;;;;5825865;40;19963;-84
2021/06/16 23:13:25;;;;;;;10.65;2.78;;;17.70;91.40;;;;;;5823463;40;20590;-81
2021/06/16 23:17:27;;;;;;;10.77;2.80;;;17.70;91.70;;;;;;5829805;40;20162;-79
2021/06/16 23:21:30;;;;;;;;;;;17.70;91.80;;;;;;5829800;40;20059;-78
2021/06/16 23:25:32;;;;;;;10.40;2.67;;;18.50;95.30;;;;;;5823427;40;19974;-77
2021/06/16 23:29:34;;;;;;;8.07;2.47;;;17.70;91.30;;;;;;5822710;40;20072;-79
2021/06/16 23:33:36;;;;;;;11.73;3.00;;;17.70;91.40;;;;;;5837701;40;20076;-83
2021/06/16 23:37:39;;;;;;;9.07;2.88;;;17.80;91.90;;;;;;5825471;40;20043;-81
2021/06/16 23:41:41;;;;;;;8.32;2.83;;;17.80;91.70;;;;;;5829690;40;20103;-82
2021/06/16 23:45:43;;;;;;;6.25;2.53;;;17.80;91.80;;;;;;5838618;40;20064;-79
2021/06/16 23:49:45;;;;;;;4.75;2.55;;;17.90;91.90;;;;;;5838596;40;20048;-78
2021/06/16 23:53:47;;;;;;;9.10;2.95;;;18.40;92.20;;;;;;5824506;40;20091;-79
2021/06/16 23:57:49;;;;;;;8.32;2.78;;;17.50;91.70;;;;;;5822328;40;20118;-79
